East Pitcairn, New York
Current Conditions -  °F | °C
As of 10:10 PM on Thursday 18 Dec 2014 (Local Time) from KGTB Reporting Station
Overcast Overcast  
Wind Chill: 19°   Ceiling: 500
Heat Index: 25°   Visibility: 10mi
Dew Point: 23°   Wind: 5mph
Humidity: 93%   Direction: 340°NNW
Pressure: 29.99"   Gusts: NA
Location:  44.1447°N, 75.2952°W
Report Text: KGTB 190310Z AUTO 34004KT 10SM BKN005 OVC015 M04/M05 A2999 RMK AO2 RAE0305
Loading
Personal Weather Stations






























Interactive Weather Map New forecast layout! Learn more

10-Day Weather Forecast

Advertisements
Track Severe Weather on mobile